sensor_id;sensor_type;location;lat;lon;timestamp;P1;durP1;ratioP1;P2;durP2;ratioP2
79668;SDS011;69136;52.614;6.976;2023-07-16T00:02:06;4.60;;;2.40;;
79668;SDS011;69136;52.614;6.976;2023-07-16T00:04:52;5.72;;;2.30;;
79668;SDS011;69136;52.614;6.976;2023-07-16T00:07:36;7.32;;;2.15;;
79668;SDS011;69136;52.614;6.976;2023-07-16T00:10:20;4.88;;;1.70;;
79668;SDS011;69136;52.614;6.976;2023-07-16T00:13:05;5.90;;;2.55;;
79668;SDS011;69136;52.614;6.976;2023-07-16T00:15:49;3.20;;;1.60;;
79668;SDS011;69136;52.614;6.976;2023-07-16T00:18:33;3.97;;;2.28;;
79668;SDS011;69136;52.614;6.976;2023-07-16T00:21:17;3.28;;;1.42;;
79668;SDS011;69136;52.614;6.976;2023-07-16T00:24:01;5.10;;;2.00;;
79668;SDS011;69136;52.614;6.976;2023-07-16T00:26:44;5.97;;;1.63;;
79668;SDS011;69136;52.614;6.976;2023-07-16T00:29:29;2.78;;;1.65;;
79668;SDS011;69136;52.614;6.976;2023-07-16T00:32:13;4.75;;;1.52;;
79668;SDS011;69136;52.614;6.976;2023-07-16T00:34:58;3.33;;;1.55;;
79668;SDS011;69136;52.614;6.976;2023-07-16T00:37:42;3.28;;;2.00;;
79668;SDS011;69136;52.614;6.976;2023-07-16T00:40:26;4.25;;;2.08;;
79668;SDS011;69136;52.614;6.976;2023-07-16T00:43:11;4.60;;;2.10;;
79668;SDS011;69136;52.614;6.976;2023-07-16T00:45:54;4.20;;;2.00;;
79668;SDS011;69136;52.614;6.976;2023-07-16T00:48:39;5.45;;;2.63;;
79668;SDS011;69136;52.614;6.976;2023-07-16T00:51:24;7.13;;;2.67;;
79668;SDS011;69136;52.614;6.976;2023-07-16T00:54:09;5.78;;;3.00;;
79668;SDS011;69136;52.614;6.976;2023-07-16T00:56:53;4.65;;;2.80;;
79668;SDS011;69136;52.614;6.976;2023-07-16T00:59:37;6.60;;;3.40;;
79668;SDS011;69136;52.614;6.976;2023-07-16T01:02:22;7.00;;;2.97;;
79668;SDS011;69136;52.614;6.976;2023-07-16T01:05:06;6.40;;;2.90;;
79668;SDS011;69136;52.614;6.976;2023-07-16T01:07:54;5.80;;;2.97;;
79668;SDS011;69136;52.614;6.976;2023-07-16T01:10:39;7.97;;;3.47;;
79668;SDS011;69136;52.614;6.976;2023-07-16T01:13:24;5.30;;;2.90;;
79668;SDS011;69136;52.614;6.976;2023-07-16T01:16:19;5.50;;;3.30;;
79668;SDS011;69136;52.614;6.976;2023-07-16T01:19:08;5.85;;;3.20;;
79668;SDS011;69136;52.614;6.976;2023-07-16T01:22:09;6.35;;;3.03;;
79668;SDS011;69136;52.614;6.976;2023-07-16T01:30:44;7.70;;;4.00;;
79668;SDS011;69136;52.614;6.976;2023-07-16T01:33:29;8.02;;;3.53;;
79668;SDS011;69136;52.614;6.976;2023-07-16T01:36:15;6.15;;;3.42;;
79668;SDS011;69136;52.614;6.976;2023-07-16T01:39:01;4.82;;;3.35;;
79668;SDS011;69136;52.614;6.976;2023-07-16T01:41:47;8.80;;;3.15;;
79668;SDS011;69136;52.614;6.976;2023-07-16T01:44:32;5.95;;;2.67;;
79668;SDS011;69136;52.614;6.976;2023-07-16T01:47:31;4.47;;;2.13;;
79668;SDS011;69136;52.614;6.976;2023-07-16T01:50:22;5.93;;;2.33;;
79668;SDS011;69136;52.614;6.976;2023-07-16T01:53:06;5.32;;;2.75;;
79668;SDS011;69136;52.614;6.976;2023-07-16T01:55:50;10.15;;;2.50;;
79668;SDS011;69136;52.614;6.976;2023-07-16T01:58:35;4.53;;;2.10;;
79668;SDS011;69136;52.614;6.976;2023-07-16T02:01:19;4.97;;;2.15;;
79668;SDS011;69136;52.614;6.976;2023-07-16T02:04:02;8.35;;;2.67;;
79668;SDS011;69136;52.614;6.976;2023-07-16T02:06:47;6.30;;;2.30;;
79668;SDS011;69136;52.614;6.976;2023-07-16T02:09:37;6.90;;;2.50;;
79668;SDS011;69136;52.614;6.976;2023-07-16T02:12:21;7.18;;;2.35;;
79668;SDS011;69136;52.614;6.976;2023-07-16T02:15:06;8.25;;;2.65;;
79668;SDS011;69136;52.614;6.976;2023-07-16T02:17:54;7.43;;;2.75;;
79668;SDS011;69136;52.614;6.976;2023-07-16T02:20:38;5.07;;;2.63;;
79668;SDS011;69136;52.614;6.976;2023-07-16T02:23:22;7.32;;;3.10;;
79668;SDS011;69136;52.614;6.976;2023-07-16T02:26:05;5.93;;;2.72;;
79668;SDS011;69136;52.614;6.976;2023-07-16T02:28:49;6.63;;;2.75;;
79668;SDS011;69136;52.614;6.976;2023-07-16T02:31:33;6.57;;;2.60;;
79668;SDS011;69136;52.614;6.976;2023-07-16T02:34:17;4.68;;;2.80;;
79668;SDS011;69136;52.614;6.976;2023-07-16T02:37:02;6.45;;;2.70;;
79668;SDS011;69136;52.614;6.976;2023-07-16T02:39:49;4.85;;;2.47;;
79668;SDS011;69136;52.614;6.976;2023-07-16T02:42:33;4.68;;;2.67;;
79668;SDS011;69136;52.614;6.976;2023-07-16T02:45:17;8.95;;;3.08;;
79668;SDS011;69136;52.614;6.976;2023-07-16T02:48:02;5.60;;;2.63;;
79668;SDS011;69136;52.614;6.976;2023-07-16T02:50:46;5.75;;;3.25;;
79668;SDS011;69136;52.614;6.976;2023-07-16T02:53:29;8.60;;;3.20;;
79668;SDS011;69136;52.614;6.976;2023-07-16T02:56:13;6.88;;;3.03;;
79668;SDS011;69136;52.614;6.976;2023-07-16T02:58:57;8.60;;;2.97;;
79668;SDS011;69136;52.614;6.976;2023-07-16T03:01:42;5.85;;;2.97;;
79668;SDS011;69136;52.614;6.976;2023-07-16T03:04:26;6.03;;;3.17;;
79668;SDS011;69136;52.614;6.976;2023-07-16T03:07:10;8.32;;;3.33;;
79668;SDS011;69136;52.614;6.976;2023-07-16T03:09:55;6.90;;;2.90;;
79668;SDS011;69136;52.614;6.976;2023-07-16T03:12:39;6.13;;;2.92;;
79668;SDS011;69136;52.614;6.976;2023-07-16T03:15:24;5.05;;;2.33;;
79668;SDS011;69136;52.614;6.976;2023-07-16T03:18:08;6.85;;;2.83;;
79668;SDS011;69136;52.614;6.976;2023-07-16T03:20:52;10.68;;;3.15;;
79668;SDS011;69136;52.614;6.976;2023-07-16T03:23:36;5.78;;;2.70;;
79668;SDS011;69136;52.614;6.976;2023-07-16T03:26:20;5.97;;;2.55;;
79668;SDS011;69136;52.614;6.976;2023-07-16T03:29:06;6.07;;;3.05;;
79668;SDS011;69136;52.614;6.976;2023-07-16T03:31:51;5.80;;;2.92;;
79668;SDS011;69136;52.614;6.976;2023-07-16T03:34:37;6.47;;;2.83;;
79668;SDS011;69136;52.614;6.976;2023-07-16T03:37:21;4.20;;;2.92;;
79668;SDS011;69136;52.614;6.976;2023-07-16T03:40:13;12.23;;;2.80;;
79668;SDS011;69136;52.614;6.976;2023-07-16T03:43:01;7.18;;;2.95;;
79668;SDS011;69136;52.614;6.976;2023-07-16T03:45:48;6.93;;;3.40;;
79668;SDS011;69136;52.614;6.976;2023-07-16T03:48:34;10.73;;;3.03;;
79668;SDS011;69136;52.614;6.976;2023-07-16T03:51:19;6.50;;;2.90;;
79668;SDS011;69136;52.614;6.976;2023-07-16T03:54:04;11.65;;;2.90;;
79668;SDS011;69136;52.614;6.976;2023-07-16T03:56:51;6.32;;;2.58;;
79668;SDS011;69136;52.614;6.976;2023-07-16T03:59:35;6.55;;;2.53;;
79668;SDS011;69136;52.614;6.976;2023-07-16T04:02:20;12.30;;;2.53;;
79668;SDS011;69136;52.614;6.976;2023-07-16T04:05:04;7.18;;;2.60;;
79668;SDS011;69136;52.614;6.976;2023-07-16T04:07:49;6.43;;;2.78;;
79668;SDS011;69136;52.614;6.976;2023-07-16T04:10:33;6.03;;;2.30;;
79668;SDS011;69136;52.614;6.976;2023-07-16T04:13:18;7.05;;;2.83;;
79668;SDS011;69136;52.614;6.976;2023-07-16T04:16:01;5.15;;;2.72;;
79668;SDS011;69136;52.614;6.976;2023-07-16T04:18:45;5.13;;;2.50;;
79668;SDS011;69136;52.614;6.976;2023-07-16T04:21:29;6.32;;;2.80;;
79668;SDS011;69136;52.614;6.976;2023-07-16T04:24:14;4.80;;;2.60;;
79668;SDS011;69136;52.614;6.976;2023-07-16T04:27:04;6.75;;;2.40;;
79668;SDS011;69136;52.614;6.976;2023-07-16T04:29:48;4.85;;;2.40;;
79668;SDS011;69136;52.614;6.976;2023-07-16T04:32:32;8.23;;;2.90;;
79668;SDS011;69136;52.614;6.976;2023-07-16T04:35:16;7.18;;;2.60;;
79668;SDS011;69136;52.614;6.976;2023-07-16T04:38:01;6.70;;;2.63;;
79668;SDS011;69136;52.614;6.976;2023-07-16T04:40:46;8.57;;;2.40;;
79668;SDS011;69136;52.614;6.976;2023-07-16T04:43:30;8.73;;;2.85;;
79668;SDS011;69136;52.614;6.976;2023-07-16T04:46:15;6.40;;;2.38;;
79668;SDS011;69136;52.614;6.976;2023-07-16T04:49:01;7.28;;;2.65;;
79668;SDS011;69136;52.614;6.976;2023-07-16T04:51:45;7.15;;;3.05;;
79668;SDS011;69136;52.614;6.976;2023-07-16T04:54:34;7.60;;;2.67;;
79668;SDS011;69136;52.614;6.976;2023-07-16T04:57:19;5.97;;;2.40;;
79668;SDS011;69136;52.614;6.976;2023-07-16T05:00:03;3.65;;;2.03;;
79668;SDS011;69136;52.614;6.976;2023-07-16T05:02:49;5.15;;;2.50;;
79668;SDS011;69136;52.614;6.976;2023-07-16T05:05:33;6.10;;;2.47;;
79668;SDS011;69136;52.614;6.976;2023-07-16T05:08:18;7.50;;;2.30;;
79668;SDS011;69136;52.614;6.976;2023-07-16T05:11:02;5.75;;;2.42;;
79668;SDS011;69136;52.614;6.976;2023-07-16T05:13:46;6.85;;;2.35;;
79668;SDS011;69136;52.614;6.976;2023-07-16T05:16:30;9.80;;;2.80;;
79668;SDS011;69136;52.614;6.976;2023-07-16T05:19:14;6.32;;;2.53;;
79668;SDS011;69136;52.614;6.976;2023-07-16T05:21:59;3.65;;;2.17;;
79668;SDS011;69136;52.614;6.976;2023-07-16T05:24:42;8.02;;;2.35;;
79668;SDS011;69136;52.614;6.976;2023-07-16T05:27:28;6.70;;;2.42;;
79668;SDS011;69136;52.614;6.976;2023-07-16T05:30:12;5.57;;;2.60;;
79668;SDS011;69136;52.614;6.976;2023-07-16T05:32:56;9.35;;;2.95;;
79668;SDS011;69136;52.614;6.976;2023-07-16T05:35:41;8.43;;;2.92;;
79668;SDS011;69136;52.614;6.976;2023-07-16T05:38:24;6.45;;;2.97;;
79668;SDS011;69136;52.614;6.976;2023-07-16T05:41:08;6.65;;;3.10;;
79668;SDS011;69136;52.614;6.976;2023-07-16T05:43:52;5.47;;;2.67;;
79668;SDS011;69136;52.614;6.976;2023-07-16T05:46:36;7.18;;;2.75;;
79668;SDS011;69136;52.614;6.976;2023-07-16T05:49:20;5.35;;;2.42;;
79668;SDS011;69136;52.614;6.976;2023-07-16T05:52:04;9.90;;;3.50;;
79668;SDS011;69136;52.614;6.976;2023-07-16T05:54:52;5.63;;;2.92;;
79668;SDS011;69136;52.614;6.976;2023-07-16T05:57:38;5.60;;;2.83;;
79668;SDS011;69136;52.614;6.976;2023-07-16T06:00:25;6.40;;;2.88;;
79668;SDS011;69136;52.614;6.976;2023-07-16T06:06:52;7.35;;;3.35;;
79668;SDS011;69136;52.614;6.976;2023-07-16T06:09:38;7.78;;;3.15;;
79668;SDS011;69136;52.614;6.976;2023-07-16T06:12:24;5.28;;;2.85;;
79668;SDS011;69136;52.614;6.976;2023-07-16T06:15:08;6.53;;;3.20;;
79668;SDS011;69136;52.614;6.976;2023-07-16T06:17:54;7.93;;;3.28;;
79668;SDS011;69136;52.614;6.976;2023-07-16T06:20:45;6.43;;;3.03;;
79668;SDS011;69136;52.614;6.976;2023-07-16T06:23:30;7.13;;;3.28;;
79668;SDS011;69136;52.614;6.976;2023-07-16T06:26:14;7.40;;;3.13;;
79668;SDS011;69136;52.614;6.976;2023-07-16T06:28:58;7.63;;;3.50;;
79668;SDS011;69136;52.614;6.976;2023-07-16T06:31:42;6.95;;;3.00;;
79668;SDS011;69136;52.614;6.976;2023-07-16T06:34:31;7.85;;;3.17;;
79668;SDS011;69136;52.614;6.976;2023-07-16T06:37:15;10.10;;;3.55;;
79668;SDS011;69136;52.614;6.976;2023-07-16T06:39:59;7.25;;;3.17;;
79668;SDS011;69136;52.614;6.976;2023-07-16T06:42:44;5.63;;;3.20;;
79668;SDS011;69136;52.614;6.976;2023-07-16T06:45:28;8.10;;;3.17;;
79668;SDS011;69136;52.614;6.976;2023-07-16T06:48:12;9.00;;;3.05;;
79668;SDS011;69136;52.614;6.976;2023-07-16T06:50:56;7.47;;;3.63;;
79668;SDS011;69136;52.614;6.976;2023-07-16T06:53:41;10.27;;;3.63;;
79668;SDS011;69136;52.614;6.976;2023-07-16T06:56:25;5.65;;;3.17;;
79668;SDS011;69136;52.614;6.976;2023-07-16T06:59:09;10.45;;;3.67;;
79668;SDS011;69136;52.614;6.976;2023-07-16T07:01:53;11.45;;;4.07;;
79668;SDS011;69136;52.614;6.976;2023-07-16T07:04:37;7.45;;;3.42;;
79668;SDS011;69136;52.614;6.976;2023-07-16T07:07:21;5.78;;;3.10;;
79668;SDS011;69136;52.614;6.976;2023-07-16T07:10:05;6.18;;;3.28;;
79668;SDS011;69136;52.614;6.976;2023-07-16T07:12:51;7.60;;;3.67;;
79668;SDS011;69136;52.614;6.976;2023-07-16T07:15:35;7.82;;;3.30;;
79668;SDS011;69136;52.614;6.976;2023-07-16T07:18:22;6.82;;;3.20;;
79668;SDS011;69136;52.614;6.976;2023-07-16T07:21:06;7.75;;;3.50;;
79668;SDS011;69136;52.614;6.976;2023-07-16T07:23:50;7.72;;;3.40;;
79668;SDS011;69136;52.614;6.976;2023-07-16T07:26:34;4.82;;;3.13;;
79668;SDS011;69136;52.614;6.976;2023-07-16T07:29:18;11.77;;;3.80;;
79668;SDS011;69136;52.614;6.976;2023-07-16T07:32:02;8.52;;;2.97;;
79668;SDS011;69136;52.614;6.976;2023-07-16T07:34:46;7.47;;;3.47;;
79668;SDS011;69136;52.614;6.976;2023-07-16T07:37:30;6.18;;;3.13;;
79668;SDS011;69136;52.614;6.976;2023-07-16T07:40:14;10.25;;;3.95;;
79668;SDS011;69136;52.614;6.976;2023-07-16T07:42:58;6.68;;;3.42;;
79668;SDS011;69136;52.614;6.976;2023-07-16T07:45:43;6.85;;;3.90;;
79668;SDS011;69136;52.614;6.976;2023-07-16T07:48:27;6.97;;;4.07;;
79668;SDS011;69136;52.614;6.976;2023-07-16T07:51:11;6.63;;;3.35;;
79668;SDS011;69136;52.614;6.976;2023-07-16T07:53:55;7.13;;;3.15;;
79668;SDS011;69136;52.614;6.976;2023-07-16T07:56:40;7.90;;;3.65;;
79668;SDS011;69136;52.614;6.976;2023-07-16T07:59:24;8.25;;;3.42;;
79668;SDS011;69136;52.614;6.976;2023-07-16T08:02:08;6.63;;;3.28;;
79668;SDS011;69136;52.614;6.976;2023-07-16T08:04:53;7.45;;;3.50;;
79668;SDS011;69136;52.614;6.976;2023-07-16T08:07:38;8.05;;;3.75;;
79668;SDS011;69136;52.614;6.976;2023-07-16T08:10:22;6.75;;;3.83;;
79668;SDS011;69136;52.614;6.976;2023-07-16T08:13:06;6.97;;;3.40;;
79668;SDS011;69136;52.614;6.976;2023-07-16T08:15:50;7.47;;;3.45;;
79668;SDS011;69136;52.614;6.976;2023-07-16T08:18:34;10.48;;;3.20;;
79668;SDS011;69136;52.614;6.976;2023-07-16T08:21:18;8.82;;;3.53;;
79668;SDS011;69136;52.614;6.976;2023-07-16T08:24:05;6.55;;;3.75;;
79668;SDS011;69136;52.614;6.976;2023-07-16T08:26:49;7.00;;;3.40;;
79668;SDS011;69136;52.614;6.976;2023-07-16T08:29:35;8.98;;;4.25;;
79668;SDS011;69136;52.614;6.976;2023-07-16T08:32:20;7.22;;;3.10;;
79668;SDS011;69136;52.614;6.976;2023-07-16T08:35:05;9.00;;;3.38;;
79668;SDS011;69136;52.614;6.976;2023-07-16T08:37:49;9.45;;;3.25;;
79668;SDS011;69136;52.614;6.976;2023-07-16T08:40:34;8.23;;;3.40;;
79668;SDS011;69136;52.614;6.976;2023-07-16T08:43:18;7.53;;;3.47;;
79668;SDS011;69136;52.614;6.976;2023-07-16T08:46:02;5.93;;;3.08;;
79668;SDS011;69136;52.614;6.976;2023-07-16T08:48:47;6.65;;;3.17;;
79668;SDS011;69136;52.614;6.976;2023-07-16T08:51:31;7.25;;;2.83;;
79668;SDS011;69136;52.614;6.976;2023-07-16T08:54:16;9.80;;;4.03;;
79668;SDS011;69136;52.614;6.976;2023-07-16T08:57:01;5.32;;;3.03;;
79668;SDS011;69136;52.614;6.976;2023-07-16T08:59:46;7.53;;;3.58;;
79668;SDS011;69136;52.614;6.976;2023-07-16T09:02:31;7.45;;;3.35;;
79668;SDS011;69136;52.614;6.976;2023-07-16T09:05:15;9.40;;;3.83;;
79668;SDS011;69136;52.614;6.976;2023-07-16T09:08:06;7.15;;;3.90;;
79668;SDS011;69136;52.614;6.976;2023-07-16T09:10:56;7.38;;;3.55;;
79668;SDS011;69136;52.614;6.976;2023-07-16T09:13:44;6.00;;;3.72;;
79668;SDS011;69136;52.614;6.976;2023-07-16T09:16:32;11.98;;;4.53;;
79668;SDS011;69136;52.614;6.976;2023-07-16T09:19:18;8.52;;;3.50;;
79668;SDS011;69136;52.614;6.976;2023-07-16T09:22:02;7.82;;;3.50;;
79668;SDS011;69136;52.614;6.976;2023-07-16T09:24:47;8.38;;;4.03;;
79668;SDS011;69136;52.614;6.976;2023-07-16T09:27:32;10.23;;;3.70;;
79668;SDS011;69136;52.614;6.976;2023-07-16T09:30:16;8.95;;;3.65;;
79668;SDS011;69136;52.614;6.976;2023-07-16T09:33:13;5.97;;;3.63;;
79668;SDS011;69136;52.614;6.976;2023-07-16T09:35:59;7.97;;;3.97;;
79668;SDS011;69136;52.614;6.976;2023-07-16T09:38:43;5.20;;;3.35;;
79668;SDS011;69136;52.614;6.976;2023-07-16T09:41:28;6.13;;;3.05;;
79668;SDS011;69136;52.614;6.976;2023-07-16T09:44:12;5.40;;;3.22;;
79668;SDS011;69136;52.614;6.976;2023-07-16T09:46:57;10.35;;;3.45;;
79668;SDS011;69136;52.614;6.976;2023-07-16T09:49:41;9.60;;;3.88;;
79668;SDS011;69136;52.614;6.976;2023-07-16T09:52:26;11.05;;;3.83;;
79668;SDS011;69136;52.614;6.976;2023-07-16T09:55:11;8.45;;;3.70;;
79668;SDS011;69136;52.614;6.976;2023-07-16T09:57:56;9.10;;;3.70;;
79668;SDS011;69136;52.614;6.976;2023-07-16T10:00:40;11.10;;;3.67;;
79668;SDS011;69136;52.614;6.976;2023-07-16T10:03:25;6.63;;;3.25;;
79668;SDS011;69136;52.614;6.976;2023-07-16T10:06:09;8.45;;;3.50;;
79668;SDS011;69136;52.614;6.976;2023-07-16T10:08:58;7.45;;;3.67;;
79668;SDS011;69136;52.614;6.976;2023-07-16T10:11:42;5.93;;;3.38;;
79668;SDS011;69136;52.614;6.976;2023-07-16T10:14:27;6.90;;;3.20;;
79668;SDS011;69136;52.614;6.976;2023-07-16T10:22:47;7.68;;;3.90;;
79668;SDS011;69136;52.614;6.976;2023-07-16T10:25:32;9.77;;;3.95;;
79668;SDS011;69136;52.614;6.976;2023-07-16T10:28:16;6.50;;;3.70;;
79668;SDS011;69136;52.614;6.976;2023-07-16T10:31:01;6.93;;;3.58;;
79668;SDS011;69136;52.614;6.976;2023-07-16T10:33:55;7.72;;;3.75;;
79668;SDS011;69136;52.614;6.976;2023-07-16T10:36:49;6.38;;;3.40;;
79668;SDS011;69136;52.614;6.976;2023-07-16T10:39:34;5.30;;;3.25;;
79668;SDS011;69136;52.614;6.976;2023-07-16T10:42:19;8.32;;;3.03;;
79668;SDS011;69136;52.614;6.976;2023-07-16T10:45:04;8.48;;;3.65;;
79668;SDS011;69136;52.614;6.976;2023-07-16T10:47:52;7.43;;;3.75;;
79668;SDS011;69136;52.614;6.976;2023-07-16T10:50:37;6.68;;;3.15;;
79668;SDS011;69136;52.614;6.976;2023-07-16T10:53:22;7.18;;;3.10;;
79668;SDS011;69136;52.614;6.976;2023-07-16T10:56:07;5.07;;;3.10;;
79668;SDS011;69136;52.614;6.976;2023-07-16T10:58:51;6.75;;;3.72;;
79668;SDS011;69136;52.614;6.976;2023-07-16T11:01:36;7.30;;;3.47;;
79668;SDS011;69136;52.614;6.976;2023-07-16T11:04:20;5.20;;;3.70;;
79668;SDS011;69136;52.614;6.976;2023-07-16T11:07:05;10.18;;;4.00;;
79668;SDS011;69136;52.614;6.976;2023-07-16T11:09:53;8.98;;;4.22;;
79668;SDS011;69136;52.614;6.976;2023-07-16T11:12:37;7.65;;;3.53;;
79668;SDS011;69136;52.614;6.976;2023-07-16T11:15:31;6.18;;;3.15;;
79668;SDS011;69136;52.614;6.976;2023-07-16T11:18:17;8.63;;;4.45;;
79668;SDS011;69136;52.614;6.976;2023-07-16T11:21:01;9.90;;;4.18;;
79668;SDS011;69136;52.614;6.976;2023-07-16T11:23:47;7.07;;;3.67;;
79668;SDS011;69136;52.614;6.976;2023-07-16T11:26:30;8.68;;;4.03;;
79668;SDS011;69136;52.614;6.976;2023-07-16T11:29:14;6.93;;;3.72;;
79668;SDS011;69136;52.614;6.976;2023-07-16T11:31:59;10.27;;;4.13;;
79668;SDS011;69136;52.614;6.976;2023-07-16T11:34:53;10.63;;;3.75;;
79668;SDS011;69136;52.614;6.976;2023-07-16T11:37:38;7.25;;;3.50;;
79668;SDS011;69136;52.614;6.976;2023-07-16T11:46:02;5.95;;;3.33;;
79668;SDS011;69136;52.614;6.976;2023-07-16T11:48:46;9.23;;;4.38;;
79668;SDS011;69136;52.614;6.976;2023-07-16T11:51:31;7.70;;;3.78;;
79668;SDS011;69136;52.614;6.976;2023-07-16T11:54:15;6.32;;;3.50;;
79668;SDS011;69136;52.614;6.976;2023-07-16T11:56:59;7.72;;;3.88;;
79668;SDS011;69136;52.614;6.976;2023-07-16T11:59:43;5.55;;;3.20;;
79668;SDS011;69136;52.614;6.976;2023-07-16T12:02:28;9.07;;;4.03;;
79668;SDS011;69136;52.614;6.976;2023-07-16T12:05:13;7.40;;;3.60;;
79668;SDS011;69136;52.614;6.976;2023-07-16T12:07:57;6.13;;;3.33;;
79668;SDS011;69136;52.614;6.976;2023-07-16T12:10:41;7.57;;;3.35;;
79668;SDS011;69136;52.614;6.976;2023-07-16T12:13:25;11.20;;;4.40;;
79668;SDS011;69136;52.614;6.976;2023-07-16T12:16:09;5.88;;;3.60;;
79668;SDS011;69136;52.614;6.976;2023-07-16T12:18:54;7.88;;;3.33;;
79668;SDS011;69136;52.614;6.976;2023-07-16T12:21:38;6.55;;;3.38;;
79668;SDS011;69136;52.614;6.976;2023-07-16T12:24:22;5.15;;;3.13;;
79668;SDS011;69136;52.614;6.976;2023-07-16T12:27:06;8.15;;;3.67;;
79668;SDS011;69136;52.614;6.976;2023-07-16T12:29:50;7.93;;;3.40;;
79668;SDS011;69136;52.614;6.976;2023-07-16T12:32:35;7.78;;;4.07;;
79668;SDS011;69136;52.614;6.976;2023-07-16T12:35:20;4.60;;;3.05;;
79668;SDS011;69136;52.614;6.976;2023-07-16T12:38:04;11.32;;;3.83;;
79668;SDS011;69136;52.614;6.976;2023-07-16T12:40:48;6.13;;;3.25;;
79668;SDS011;69136;52.614;6.976;2023-07-16T12:43:32;5.93;;;3.63;;
79668;SDS011;69136;52.614;6.976;2023-07-16T12:46:18;7.43;;;3.75;;
79668;SDS011;69136;52.614;6.976;2023-07-16T12:49:01;6.72;;;3.70;;
79668;SDS011;69136;52.614;6.976;2023-07-16T12:51:46;5.88;;;3.30;;
79668;SDS011;69136;52.614;6.976;2023-07-16T12:54:30;10.13;;;3.85;;
79668;SDS011;69136;52.614;6.976;2023-07-16T12:57:17;10.63;;;4.15;;
79668;SDS011;69136;52.614;6.976;2023-07-16T13:00:01;9.48;;;2.95;;
79668;SDS011;69136;52.614;6.976;2023-07-16T13:02:49;5.78;;;2.90;;
79668;SDS011;69136;52.614;6.976;2023-07-16T13:05:33;8.60;;;3.00;;
79668;SDS011;69136;52.614;6.976;2023-07-16T13:08:17;5.70;;;3.60;;
79668;SDS011;69136;52.614;6.976;2023-07-16T13:11:01;6.35;;;3.40;;
79668;SDS011;69136;52.614;6.976;2023-07-16T13:13:45;6.90;;;3.30;;
79668;SDS011;69136;52.614;6.976;2023-07-16T13:16:29;7.72;;;3.28;;
79668;SDS011;69136;52.614;6.976;2023-07-16T13:19:13;8.65;;;3.33;;
79668;SDS011;69136;52.614;6.976;2023-07-16T13:22:01;5.68;;;3.00;;
79668;SDS011;69136;52.614;6.976;2023-07-16T13:24:46;6.53;;;3.25;;
79668;SDS011;69136;52.614;6.976;2023-07-16T13:27:30;4.85;;;2.80;;
79668;SDS011;69136;52.614;6.976;2023-07-16T13:30:14;7.03;;;3.00;;
79668;SDS011;69136;52.614;6.976;2023-07-16T13:32:58;6.93;;;3.13;;
79668;SDS011;69136;52.614;6.976;2023-07-16T13:35:43;6.18;;;3.33;;
79668;SDS011;69136;52.614;6.976;2023-07-16T13:38:27;8.30;;;2.92;;
79668;SDS011;69136;52.614;6.976;2023-07-16T13:41:11;6.13;;;2.65;;
79668;SDS011;69136;52.614;6.976;2023-07-16T13:43:55;7.88;;;2.65;;
79668;SDS011;69136;52.614;6.976;2023-07-16T13:46:39;4.13;;;2.80;;
79668;SDS011;69136;52.614;6.976;2023-07-16T13:49:24;4.10;;;2.80;;
79668;SDS011;69136;52.614;6.976;2023-07-16T13:52:09;5.45;;;2.72;;
79668;SDS011;69136;52.614;6.976;2023-07-16T13:54:53;6.30;;;2.67;;
79668;SDS011;69136;52.614;6.976;2023-07-16T13:57:38;6.00;;;2.90;;
79668;SDS011;69136;52.614;6.976;2023-07-16T14:00:22;6.63;;;2.72;;
79668;SDS011;69136;52.614;6.976;2023-07-16T14:03:06;7.18;;;2.45;;
79668;SDS011;69136;52.614;6.976;2023-07-16T14:05:50;7.63;;;3.08;;
79668;SDS011;69136;52.614;6.976;2023-07-16T14:08:35;6.47;;;2.95;;
79668;SDS011;69136;52.614;6.976;2023-07-16T14:11:20;5.13;;;3.13;;
79668;SDS011;69136;52.614;6.976;2023-07-16T14:14:05;5.70;;;3.30;;
79668;SDS011;69136;52.614;6.976;2023-07-16T14:16:49;9.13;;;3.53;;
79668;SDS011;69136;52.614;6.976;2023-07-16T14:19:35;6.93;;;3.28;;
79668;SDS011;69136;52.614;6.976;2023-07-16T14:22:19;8.15;;;3.95;;
79668;SDS011;69136;52.614;6.976;2023-07-16T14:25:05;8.55;;;4.10;;
79668;SDS011;69136;52.614;6.976;2023-07-16T14:27:49;7.32;;;3.72;;
79668;SDS011;69136;52.614;6.976;2023-07-16T14:30:33;5.82;;;3.17;;
79668;SDS011;69136;52.614;6.976;2023-07-16T14:33:17;6.78;;;3.33;;
79668;SDS011;69136;52.614;6.976;2023-07-16T14:36:01;7.88;;;3.92;;
79668;SDS011;69136;52.614;6.976;2023-07-16T14:38:46;6.93;;;3.60;;
79668;SDS011;69136;52.614;6.976;2023-07-16T14:41:30;7.35;;;3.85;;
79668;SDS011;69136;52.614;6.976;2023-07-16T14:44:14;6.85;;;3.20;;
79668;SDS011;69136;52.614;6.976;2023-07-16T14:46:58;5.53;;;3.47;;
79668;SDS011;69136;52.614;6.976;2023-07-16T14:49:43;8.15;;;2.78;;
79668;SDS011;69136;52.614;6.976;2023-07-16T14:52:27;5.68;;;3.13;;
79668;SDS011;69136;52.614;6.976;2023-07-16T14:55:16;5.32;;;3.10;;
79668;SDS011;69136;52.614;6.976;2023-07-16T14:58:01;4.53;;;2.65;;
79668;SDS011;69136;52.614;6.976;2023-07-16T15:00:46;4.55;;;3.08;;
79668;SDS011;69136;52.614;6.976;2023-07-16T15:03:30;6.68;;;3.05;;
79668;SDS011;69136;52.614;6.976;2023-07-16T15:06:14;6.78;;;2.97;;
79668;SDS011;69136;52.614;6.976;2023-07-16T15:08:59;7.70;;;2.95;;
79668;SDS011;69136;52.614;6.976;2023-07-16T15:11:43;6.22;;;3.30;;
79668;SDS011;69136;52.614;6.976;2023-07-16T15:14:27;6.88;;;3.50;;
79668;SDS011;69136;52.614;6.976;2023-07-16T15:17:11;8.75;;;3.75;;
79668;SDS011;69136;52.614;6.976;2023-07-16T15:19:55;6.90;;;3.63;;
79668;SDS011;69136;52.614;6.976;2023-07-16T15:22:39;8.48;;;3.55;;
79668;SDS011;69136;52.614;6.976;2023-07-16T15:25:23;4.70;;;3.03;;
79668;SDS011;69136;52.614;6.976;2023-07-16T15:28:09;6.88;;;2.92;;
79668;SDS011;69136;52.614;6.976;2023-07-16T15:30:55;4.57;;;2.65;;
79668;SDS011;69136;52.614;6.976;2023-07-16T15:33:39;5.60;;;2.78;;
79668;SDS011;69136;52.614;6.976;2023-07-16T15:36:24;6.22;;;2.53;;
79668;SDS011;69136;52.614;6.976;2023-07-16T15:39:09;7.63;;;2.35;;
79668;SDS011;69136;52.614;6.976;2023-07-16T15:41:53;7.70;;;2.60;;
79668;SDS011;69136;52.614;6.976;2023-07-16T15:44:37;4.47;;;2.38;;
79668;SDS011;69136;52.614;6.976;2023-07-16T15:47:23;3.92;;;2.58;;
79668;SDS011;69136;52.614;6.976;2023-07-16T15:50:07;4.68;;;2.20;;
79668;SDS011;69136;52.614;6.976;2023-07-16T15:52:52;5.38;;;2.70;;
79668;SDS011;69136;52.614;6.976;2023-07-16T15:55:36;6.22;;;2.08;;
79668;SDS011;69136;52.614;6.976;2023-07-16T15:58:21;4.63;;;2.40;;
79668;SDS011;69136;52.614;6.976;2023-07-16T16:01:05;3.28;;;2.30;;
79668;SDS011;69136;52.614;6.976;2023-07-16T16:03:50;5.82;;;1.88;;
79668;SDS011;69136;52.614;6.976;2023-07-16T16:06:34;4.90;;;2.17;;
79668;SDS011;69136;52.614;6.976;2023-07-16T16:09:18;4.22;;;1.90;;
79668;SDS011;69136;52.614;6.976;2023-07-16T16:12:03;5.45;;;1.92;;
79668;SDS011;69136;52.614;6.976;2023-07-16T16:14:47;3.53;;;1.95;;
79668;SDS011;69136;52.614;6.976;2023-07-16T16:17:31;3.85;;;1.83;;
79668;SDS011;69136;52.614;6.976;2023-07-16T16:20:16;2.40;;;1.80;;
79668;SDS011;69136;52.614;6.976;2023-07-16T16:23:00;3.95;;;1.50;;
79668;SDS011;69136;52.614;6.976;2023-07-16T16:25:44;4.32;;;2.20;;
79668;SDS011;69136;52.614;6.976;2023-07-16T16:28:28;4.72;;;2.40;;
79668;SDS011;69136;52.614;6.976;2023-07-16T16:31:13;6.07;;;2.55;;
79668;SDS011;69136;52.614;6.976;2023-07-16T16:33:57;5.90;;;2.53;;
79668;SDS011;69136;52.614;6.976;2023-07-16T16:36:41;2.70;;;2.20;;
79668;SDS011;69136;52.614;6.976;2023-07-16T16:39:25;4.32;;;2.15;;
79668;SDS011;69136;52.614;6.976;2023-07-16T16:42:09;5.35;;;1.95;;
79668;SDS011;69136;52.614;6.976;2023-07-16T16:44:53;6.60;;;2.28;;
79668;SDS011;69136;52.614;6.976;2023-07-16T16:47:40;5.53;;;2.25;;
79668;SDS011;69136;52.614;6.976;2023-07-16T16:50:24;5.80;;;1.80;;
79668;SDS011;69136;52.614;6.976;2023-07-16T16:53:08;4.97;;;1.88;;
79668;SDS011;69136;52.614;6.976;2023-07-16T16:55:53;5.45;;;2.20;;